createdAt,value
2018-11-28T00:01:41.790Z,38.67
2018-11-28T00:04:09.499Z,30.87
2018-11-28T00:06:37.223Z,35.57
2018-11-28T00:09:08.220Z,39.57
2018-11-28T00:11:36.143Z,36.67
2018-11-28T00:14:03.928Z,36.33
2018-11-28T00:16:31.630Z,37.17
2018-11-28T00:18:59.318Z,37.07
2018-11-28T00:21:26.963Z,37.63
2018-11-28T00:23:54.700Z,40.67
2018-11-28T00:26:22.422Z,38.27
2018-11-28T00:28:50.159Z,41.90
2018-11-28T00:31:17.864Z,46.17
2018-11-28T00:33:45.625Z,41.43
2018-11-28T00:36:13.415Z,37.97
2018-11-28T00:38:41.113Z,40.73
2018-11-28T00:41:08.783Z,33.57
2018-11-28T00:43:36.483Z,37.10
2018-11-28T00:46:05.570Z,35.07
2018-11-28T00:48:33.303Z,39.17
2018-11-28T00:51:01.003Z,34.83
2018-11-28T00:53:28.719Z,31.27
2018-11-28T00:55:56.491Z,40.33
2018-11-28T00:58:24.183Z,44.13
2018-11-28T01:00:51.837Z,40.97
2018-11-28T01:03:19.624Z,37.30
2018-11-28T01:05:47.396Z,34.40
2018-11-28T01:08:15.214Z,30.47
2018-11-28T01:10:42.896Z,37.07
2018-11-28T01:13:10.587Z,41.27
2018-11-28T01:15:38.383Z,39.20
2018-11-28T01:18:06.615Z,38.23
2018-11-28T01:20:34.304Z,31.80
2018-11-28T01:23:02.014Z,33.40
2018-11-28T01:25:29.717Z,34.13
2018-11-28T01:27:57.421Z,38.07
2018-11-28T01:30:25.207Z,40.33
2018-11-28T01:32:52.873Z,36.83
2018-11-28T01:35:21.221Z,31.53
2018-11-28T01:37:48.967Z,39.77
2018-11-28T01:40:18.243Z,35.53
2018-11-28T01:42:46.007Z,35.97
2018-11-28T01:45:16.390Z,35.13
2018-11-28T01:47:44.203Z,37.13
2018-11-28T01:50:13.507Z,39.90
2018-11-28T01:52:41.303Z,32.23
2018-11-28T01:55:12.985Z,30.63
2018-11-28T01:57:40.725Z,35.50
2018-11-28T02:00:21.831Z,29.57
2018-11-28T02:02:57.479Z,38.47
2018-11-28T02:05:25.307Z,32.47
2018-11-28T02:07:52.987Z,36.70
2018-11-28T02:10:23.588Z,37.57
2018-11-28T02:12:51.279Z,34.83
2018-11-28T02:15:20.399Z,31.07
2018-11-28T02:17:48.207Z,32.23
2018-11-28T02:20:16.988Z,34.10
2018-11-28T02:22:45.334Z,38.90
2018-11-28T02:25:16.040Z,31.73
2018-11-28T02:27:44.277Z,30.33
2018-11-28T02:30:18.382Z,31.53
2018-11-28T02:32:47.247Z,22.13
2018-11-28T02:35:15.950Z,35.13
2018-11-28T02:37:43.691Z,31.77
2018-11-28T02:40:12.875Z,26.57
2018-11-28T02:42:40.791Z,22.33
2018-11-28T02:45:13.291Z,20.73
2018-11-28T02:47:41.056Z,17.57
2018-11-28T02:50:08.852Z,36.07
2018-11-28T02:52:36.559Z,25.87
2018-11-28T02:55:06.015Z,24.73
2018-11-28T02:57:33.720Z,24.63
2018-11-28T03:00:01.396Z,31.43
2018-11-28T03:02:29.140Z,36.63
2018-11-28T03:04:56.919Z,37.20
2018-11-28T03:07:24.655Z,39.37
2018-11-28T03:09:52.388Z,27.67
2018-11-28T03:12:20.103Z,35.83
2018-11-28T03:14:47.876Z,32.77
2018-11-28T03:17:21.353Z,26.47
2018-11-28T03:19:49.072Z,27.87
2018-11-28T03:22:16.755Z,29.87
2018-11-28T03:24:44.424Z,27.87
2018-11-28T03:27:12.093Z,27.67
2018-11-28T03:29:39.718Z,36.70
2018-11-28T03:32:07.464Z,33.40
2018-11-28T03:34:35.203Z,30.13
2018-11-28T03:37:02.936Z,36.03
2018-11-28T03:39:30.672Z,28.83
2018-11-28T03:41:58.408Z,34.17
2018-11-28T03:44:26.099Z,41.40
2018-11-28T03:46:53.815Z,28.27
2018-11-28T03:49:21.564Z,43.57
2018-11-28T03:51:49.276Z,44.13
2018-11-28T03:54:17.047Z,44.47
2018-11-28T03:56:44.768Z,43.57
2018-11-28T03:59:12.426Z,44.10
2018-11-28T04:01:40.165Z,40.57
2018-11-28T04:04:07.896Z,41.17
2018-11-28T04:06:35.543Z,44.40
2018-11-28T04:09:06.475Z,38.13
2018-11-28T04:11:34.175Z,42.00
2018-11-28T04:14:02.783Z,43.23
2018-11-28T04:16:30.446Z,39.97
2018-11-28T04:18:58.103Z,44.30
2018-11-28T04:21:25.811Z,40.97
2018-11-28T04:23:53.452Z,35.23
2018-11-28T04:26:21.207Z,42.80
2018-11-28T04:28:50.265Z,43.33
2018-11-28T04:31:18.543Z,42.70
2018-11-28T04:33:46.211Z,46.70
2018-11-28T04:36:14.011Z,37.73
2018-11-28T04:38:41.705Z,42.10
2018-11-28T04:41:09.444Z,36.03
2018-11-28T04:43:37.111Z,39.07
2018-11-28T04:46:05.339Z,42.07
2018-11-28T04:48:33.035Z,48.37
2018-11-28T04:51:00.755Z,37.53
2018-11-28T04:53:28.417Z,43.37
2018-11-28T04:55:56.140Z,42.33
2018-11-28T04:58:23.903Z,43.90
2018-11-28T05:00:51.553Z,42.37
2018-11-28T05:03:19.236Z,37.17
2018-11-28T05:05:46.912Z,43.47
2018-11-28T05:08:14.637Z,41.20
2018-11-28T05:10:43.234Z,41.50
2018-11-28T05:13:11.127Z,46.77
2018-11-28T05:15:38.858Z,47.40
2018-11-28T05:18:06.602Z,44.27
2018-11-28T05:20:34.556Z,46.30
2018-11-28T05:23:03.630Z,45.63
2018-11-28T05:25:33.023Z,46.60
2018-11-28T05:28:00.698Z,43.43
2018-11-28T05:30:30.625Z,47.37
2018-11-28T05:32:58.817Z,48.80
2018-11-28T05:35:30.311Z,48.27
2018-11-28T05:37:58.007Z,53.63
2018-11-28T05:40:27.142Z,50.03
2018-11-28T05:42:55.657Z,43.43
2018-11-28T05:45:23.759Z,44.90
2018-11-28T05:47:51.906Z,49.97
2018-11-28T05:50:21.851Z,45.37
2018-11-28T05:52:50.040Z,52.23
2018-11-28T05:55:20.779Z,51.90
2018-11-28T05:57:49.099Z,47.97
2018-11-28T06:00:25.962Z,46.00
2018-11-28T06:02:54.054Z,47.90
2018-11-28T06:05:22.014Z,47.33
2018-11-28T06:07:50.074Z,46.17
2018-11-28T06:10:17.923Z,45.50
2018-11-28T06:12:46.171Z,37.73
2018-11-28T06:15:14.435Z,36.07
2018-11-28T06:17:42.255Z,32.17
2018-11-28T06:20:12.863Z,28.10
2018-11-28T06:22:40.782Z,31.00
2018-11-28T06:25:15.856Z,46.80
2018-11-28T06:27:39.927Z,43.30
2018-11-28T06:30:11.786Z,42.97
2018-11-28T06:32:39.871Z,42.23
2018-11-28T06:35:09.156Z,47.63
2018-11-28T06:37:37.203Z,46.70
2018-11-28T06:40:08.762Z,32.37
2018-11-28T06:42:36.976Z,52.00
2018-11-28T06:45:08.107Z,53.27
2018-11-28T06:47:36.194Z,48.60
2018-11-28T06:50:09.607Z,46.53
2018-11-28T06:52:37.686Z,45.00
2018-11-28T06:55:08.442Z,41.83
2018-11-28T06:57:38.684Z,51.63
2018-11-28T07:00:14.712Z,48.63
2018-11-28T07:02:43.012Z,46.20
2018-11-28T07:05:11.631Z,43.60
2018-11-28T07:07:39.371Z,44.60
2018-11-28T07:10:13.795Z,51.97
2018-11-28T07:12:41.515Z,55.03
2018-11-28T07:15:13.457Z,59.93
2018-11-28T07:17:41.924Z,48.10
2018-11-28T07:20:12.483Z,51.53
2018-11-28T07:22:40.303Z,58.27
2018-11-28T07:25:17.588Z,56.30
2018-11-28T07:27:46.793Z,58.20
2018-11-28T07:30:19.498Z,53.83
2018-11-28T07:32:48.635Z,50.93
2018-11-28T07:35:16.360Z,53.17
2018-11-28T07:37:44.079Z,53.47
2018-11-28T07:40:20.903Z,59.77
2018-11-28T07:43:11.303Z,57.03
2018-11-28T07:45:41.378Z,54.20
2018-11-28T07:48:09.295Z,58.07
2018-11-28T07:50:37.062Z,52.20
2018-11-28T07:53:04.955Z,56.73
2018-11-28T07:55:32.772Z,57.17
2018-11-28T07:58:00.730Z,53.73
2018-11-28T08:00:28.447Z,53.20
2018-11-28T08:02:56.271Z,59.93
2018-11-28T08:05:24.100Z,56.50
2018-11-28T08:07:51.891Z,56.27
2018-11-28T08:10:21.036Z,57.57
2018-11-28T08:12:50.528Z,53.97
2018-11-28T08:15:18.288Z,57.30
2018-11-28T08:17:45.990Z,56.90
2018-11-28T08:20:13.892Z,49.97
2018-11-28T08:22:41.668Z,59.67
2018-11-28T08:25:13.862Z,53.27
2018-11-28T08:27:42.931Z,59.87
2018-11-28T08:30:14.991Z,57.67
2018-11-28T08:32:42.712Z,58.57
2018-11-28T08:35:11.425Z,53.70
2018-11-28T08:37:39.120Z,52.87
2018-11-28T08:40:10.259Z,57.07
2018-11-28T08:42:38.071Z,54.20
2018-11-28T08:45:08.920Z,67.00
2018-11-28T08:47:36.686Z,57.60
2018-11-28T08:50:10.071Z,56.47
2018-11-28T08:52:37.796Z,56.37
2018-11-28T08:55:07.386Z,60.97
2018-11-28T08:57:35.199Z,63.03
2018-11-28T09:00:13.568Z,56.20
2018-11-28T09:02:41.355Z,57.00
2018-11-28T09:05:10.531Z,53.33
2018-11-28T09:07:38.375Z,50.30
2018-11-28T09:10:13.587Z,51.30
2018-11-28T09:12:41.309Z,49.23
2018-11-28T09:15:14.792Z,54.20
2018-11-28T09:17:42.508Z,57.33
2018-11-28T09:20:12.611Z,53.30
2018-11-28T09:22:40.355Z,49.17
2018-11-28T09:25:11.229Z,52.10
2018-11-28T09:27:38.911Z,50.70
2018-11-28T09:30:10.637Z,52.53
2018-11-28T09:32:38.353Z,51.17
2018-11-28T09:35:08.104Z,55.30
2018-11-28T09:37:35.834Z,52.53
2018-11-28T09:40:08.821Z,51.90
2018-11-28T09:42:37.091Z,53.90
2018-11-28T09:45:05.435Z,47.57
2018-11-28T09:47:33.172Z,49.37
2018-11-28T09:50:00.855Z,47.93
2018-11-28T09:52:28.664Z,45.43
2018-11-28T09:54:58.242Z,47.50
2018-11-28T09:57:25.944Z,44.70
2018-11-28T09:59:53.643Z,41.83
2018-11-28T10:02:21.348Z,42.67
2018-11-28T10:04:49.099Z,44.17
2018-11-28T10:07:16.864Z,44.43
2018-11-28T10:09:44.593Z,45.27
2018-11-28T10:12:12.355Z,44.00
2018-11-28T10:14:40.156Z,41.50
2018-11-28T10:17:07.867Z,35.47
2018-11-28T10:19:35.639Z,35.60
2018-11-28T10:22:03.552Z,43.13
2018-11-28T10:24:31.211Z,40.67
2018-11-28T10:26:59.017Z,42.60
2018-11-28T10:29:26.880Z,35.10
2018-11-28T10:31:54.895Z,35.43
2018-11-28T10:34:22.665Z,38.50
2018-11-28T10:36:50.426Z,34.83
2018-11-28T10:39:18.291Z,37.33
2018-11-28T10:41:45.979Z,34.63
2018-11-28T10:44:13.727Z,35.80
2018-11-28T10:46:41.515Z,38.60
2018-11-28T10:49:09.199Z,38.90
2018-11-28T10:51:36.991Z,33.80
2018-11-28T10:54:05.364Z,32.60
2018-11-28T10:56:33.067Z,34.70
2018-11-28T10:59:00.891Z,39.00
2018-11-28T11:01:28.651Z,36.33
2018-11-28T11:04:01.951Z,34.07
2018-11-28T11:06:35.572Z,32.80
2018-11-28T11:09:11.315Z,34.43
2018-11-28T11:11:44.948Z,35.07
2018-11-28T11:14:18.286Z,36.70
2018-11-28T11:16:46.087Z,31.73
2018-11-28T11:19:13.884Z,28.50
2018-11-28T11:21:41.698Z,32.90
2018-11-28T11:24:09.514Z,29.67
2018-11-28T11:26:37.295Z,28.67
2018-11-28T11:29:05.431Z,30.87
2018-11-28T11:31:33.833Z,36.70
2018-11-28T11:34:00.879Z,33.20
2018-11-28T11:36:28.666Z,29.90
2018-11-28T11:38:56.364Z,29.33
2018-11-28T11:41:24.063Z,32.40
2018-11-28T11:43:51.779Z,31.87
2018-11-28T11:46:19.623Z,29.57
2018-11-28T11:48:47.303Z,33.67
2018-11-28T11:51:15.140Z,32.57
2018-11-28T11:53:42.836Z,31.33
2018-11-28T11:56:10.607Z,32.03
2018-11-28T11:58:38.351Z,27.20
2018-11-28T12:01:06.352Z,28.67
2018-11-28T12:03:34.111Z,31.40
2018-11-28T12:06:01.840Z,26.17
2018-11-28T12:08:29.763Z,31.10
2018-11-28T12:10:57.458Z,28.17
2018-11-28T12:13:25.345Z,27.67
2018-11-28T12:15:53.199Z,28.33
2018-11-28T12:18:20.887Z,28.87
2018-11-28T12:20:52.057Z,23.43
2018-11-28T12:23:19.887Z,26.57
2018-11-28T12:25:49.782Z,24.43
2018-11-28T12:28:17.532Z,26.10
2018-11-28T12:30:45.309Z,23.93
2018-11-28T12:33:13.072Z,25.50
2018-11-28T12:35:40.778Z,24.57
2018-11-28T12:38:08.500Z,25.53
2018-11-28T12:40:36.555Z,25.20
2018-11-28T12:43:07.371Z,26.03
2018-11-28T12:45:36.373Z,22.10
2018-11-28T12:48:04.143Z,24.57
2018-11-28T12:50:31.964Z,26.17
2018-11-28T12:53:01.110Z,25.67
2018-11-28T12:55:33.975Z,24.67
2018-11-28T12:58:01.723Z,23.13
2018-11-28T13:00:32.132Z,27.03
2018-11-28T13:02:59.915Z,26.67
2018-11-28T13:05:27.704Z,27.47
2018-11-28T13:07:55.451Z,22.87
2018-11-28T13:10:26.865Z,25.97
2018-11-28T13:12:54.987Z,25.07
2018-11-28T13:15:24.611Z,23.13
2018-11-28T13:17:52.369Z,22.90
2018-11-28T13:20:21.272Z,20.57
2018-11-28T13:22:50.481Z,22.67
2018-11-28T13:25:22.008Z,24.07
2018-11-28T13:27:49.833Z,23.53
2018-11-28T13:30:19.043Z,23.17
2018-11-28T13:32:47.763Z,27.77
2018-11-28T13:35:18.958Z,27.73
2018-11-28T13:37:49.988Z,24.63
2018-11-28T13:40:18.782Z,24.83
2018-11-28T13:42:46.520Z,20.33
2018-11-28T13:45:31.913Z,24.33
2018-11-28T13:47:59.762Z,23.87
2018-11-28T13:50:27.551Z,25.57
2018-11-28T13:52:56.483Z,24.60
2018-11-28T13:55:44.017Z,23.67
2018-11-28T13:57:56.522Z,25.77
2018-11-28T14:00:24.863Z,21.97
2018-11-28T14:02:52.603Z,24.23
2018-11-28T14:05:20.351Z,21.17
2018-11-28T14:07:48.162Z,22.20
2018-11-28T14:10:16.083Z,24.50
2018-11-28T14:12:44.652Z,24.13
2018-11-28T14:15:17.042Z,28.33
2018-11-28T14:17:49.023Z,24.87
2018-11-28T14:20:16.874Z,22.33
2018-11-28T14:22:44.691Z,23.70
2018-11-28T14:25:13.273Z,24.00
2018-11-28T14:27:41.619Z,25.50
2018-11-28T14:30:13.602Z,23.90
2018-11-28T14:32:41.352Z,24.80
2018-11-28T14:35:10.387Z,25.73
2018-11-28T14:37:38.115Z,24.13
2018-11-28T14:40:09.895Z,24.87
2018-11-28T14:42:37.571Z,26.83
2018-11-28T14:45:10.479Z,25.30
2018-11-28T14:47:38.319Z,23.43
2018-11-28T14:50:11.072Z,25.00
2018-11-28T14:52:38.768Z,26.70
2018-11-28T14:55:12.331Z,27.57
2018-11-28T14:57:40.383Z,25.20
2018-11-28T15:00:17.778Z,27.13
2018-11-28T15:02:50.499Z,23.80
2018-11-28T15:05:58.802Z,25.20
2018-11-28T15:08:26.971Z,26.17
2018-11-28T15:11:07.884Z,26.53
2018-11-28T15:13:35.687Z,26.67
2018-11-28T15:16:03.519Z,28.67
2018-11-28T15:18:31.279Z,26.63
2018-11-28T15:20:58.999Z,21.77
2018-11-28T15:23:26.681Z,27.50
2018-11-28T15:25:54.415Z,19.27
2018-11-28T15:28:22.159Z,24.00
2018-11-28T15:30:49.935Z,26.70
2018-11-28T15:33:17.736Z,22.67
2018-11-28T15:35:45.419Z,24.03
2018-11-28T15:38:13.079Z,26.33
2018-11-28T15:40:41.201Z,23.13
2018-11-28T15:43:08.919Z,24.57
2018-11-28T15:45:40.940Z,24.50
2018-11-28T15:48:08.667Z,31.10
2018-11-28T15:50:36.519Z,28.00
2018-11-28T15:53:04.555Z,23.17
2018-11-28T15:55:32.895Z,28.63
2018-11-28T15:58:03.772Z,24.33
2018-11-28T16:00:31.813Z,28.37
2018-11-28T16:02:59.727Z,24.13
2018-11-28T16:05:27.575Z,27.07
2018-11-28T16:07:55.461Z,25.20
2018-11-28T16:10:29.011Z,27.13
2018-11-28T16:12:57.249Z,25.87
2018-11-28T16:15:28.559Z,23.27
2018-11-28T16:17:56.568Z,24.70
2018-11-28T16:20:24.741Z,25.80
2018-11-28T16:22:52.668Z,23.90
2018-11-28T16:25:20.661Z,24.47
2018-11-28T16:27:48.520Z,23.43
2018-11-28T16:30:16.316Z,24.30
2018-11-28T16:32:45.344Z,24.07
2018-11-28T16:35:15.807Z,24.87
2018-11-28T16:37:44.508Z,25.37
2018-11-28T16:40:14.559Z,23.47
2018-11-28T16:42:46.317Z,23.80
2018-11-28T16:45:19.283Z,24.37
2018-11-28T16:47:47.768Z,24.00
2018-11-28T16:50:16.941Z,27.77
2018-11-28T16:52:45.106Z,26.10
2018-11-28T16:55:15.433Z,25.50
2018-11-28T16:57:46.887Z,24.53
2018-11-28T17:00:18.439Z,25.73
2018-11-28T17:02:46.197Z,24.57
2018-11-28T17:05:15.610Z,24.43
2018-11-28T17:07:43.570Z,24.17
2018-11-28T17:10:15.762Z,24.83
2018-11-28T17:12:44.832Z,22.00
2018-11-28T17:15:15.035Z,26.00
2018-11-28T17:17:43.111Z,28.67
2018-11-28T17:20:16.425Z,24.57
2018-11-28T17:22:45.009Z,22.80
2018-11-28T17:25:24.069Z,23.60
2018-11-28T17:27:51.895Z,25.23
2018-11-28T17:30:21.808Z,24.30
2018-11-28T17:32:49.507Z,22.70
2018-11-28T17:35:17.311Z,21.77
2018-11-28T17:37:45.380Z,25.03
2018-11-28T17:40:18.068Z,27.83
2018-11-28T17:42:47.769Z,22.67
2018-11-28T17:45:17.007Z,24.67
2018-11-28T17:47:44.807Z,27.30
2018-11-28T17:50:16.211Z,24.63
2018-11-28T17:53:05.492Z,24.67
2018-11-28T17:55:39.355Z,22.73
2018-11-28T17:58:07.267Z,23.67
2018-11-28T18:00:35.529Z,24.83
2018-11-28T18:03:03.298Z,21.23
2018-11-28T18:05:31.063Z,23.47
2018-11-28T18:07:58.722Z,24.57
2018-11-28T18:10:26.506Z,23.43
2018-11-28T18:13:08.995Z,22.23
2018-11-28T18:15:37.220Z,24.87
2018-11-28T18:18:07.567Z,24.83
2018-11-28T18:20:35.597Z,25.40
2018-11-28T18:23:04.583Z,27.17
2018-11-28T18:25:33.299Z,22.80
2018-11-28T18:28:01.372Z,25.93
2018-11-28T18:30:29.051Z,22.90
2018-11-28T18:32:56.784Z,25.53
2018-11-28T18:35:24.555Z,23.27
2018-11-28T18:37:53.030Z,21.50
2018-11-28T18:40:20.766Z,26.20
2018-11-28T18:42:48.463Z,21.90
2018-11-28T18:45:23.561Z,22.70
2018-11-28T18:47:51.726Z,23.07
2018-11-28T18:50:19.487Z,23.70
2018-11-28T18:52:47.257Z,20.03
2018-11-28T18:55:18.775Z,20.97
2018-11-28T18:57:48.515Z,25.17
2018-11-28T19:00:20.177Z,23.43
2018-11-28T19:02:47.894Z,21.57
2018-11-28T19:05:15.671Z,23.67
2018-11-28T19:07:44.787Z,22.93
2018-11-28T19:10:15.436Z,24.67
2018-11-28T19:12:43.255Z,25.47
2018-11-28T19:15:12.766Z,23.47
2018-11-28T19:17:40.722Z,22.63
2018-11-28T19:20:11.968Z,23.63
2018-11-28T19:22:39.700Z,27.07
2018-11-28T19:25:10.872Z,26.57
2018-11-28T19:27:38.743Z,26.83
2018-11-28T19:30:13.631Z,23.90
2018-11-28T19:32:41.410Z,23.03
2018-11-28T19:35:10.300Z,25.20
2018-11-28T19:37:39.193Z,27.77
2018-11-28T19:40:15.299Z,26.20
2018-11-28T19:42:43.165Z,24.87
2018-11-28T19:45:10.899Z,26.90
2018-11-28T19:47:38.789Z,28.57
2018-11-28T19:50:10.527Z,29.00
2018-11-28T19:52:38.275Z,29.13
2018-11-28T19:55:07.339Z,27.13
2018-11-28T19:57:35.004Z,30.40
2018-11-28T20:00:04.190Z,30.90
2018-11-28T20:02:31.947Z,32.13
2018-11-28T20:04:59.759Z,30.13
2018-11-28T20:07:27.924Z,30.03
2018-11-28T20:09:57.674Z,32.17
2018-11-28T20:12:26.627Z,31.17
2018-11-28T20:14:54.380Z,32.00
2018-11-28T20:17:22.048Z,33.47
2018-11-28T20:19:49.984Z,31.77
2018-11-28T20:22:17.704Z,33.17
2018-11-28T20:24:45.475Z,31.90
2018-11-28T20:27:13.236Z,33.47
2018-11-28T20:29:41.428Z,31.73
2018-11-28T20:32:09.220Z,33.00
2018-11-28T20:34:36.927Z,34.60
2018-11-28T20:37:04.891Z,36.97
2018-11-28T20:39:32.679Z,35.73
2018-11-28T20:42:00.375Z,36.70
2018-11-28T20:44:28.599Z,36.47
2018-11-28T20:46:56.703Z,36.40
2018-11-28T20:49:24.579Z,35.23
2018-11-28T20:51:52.235Z,40.50
2018-11-28T20:54:19.926Z,37.63
2018-11-28T20:56:48.067Z,35.70
2018-11-28T20:59:15.953Z,35.40
2018-11-28T21:01:43.768Z,36.40
2018-11-28T21:04:11.475Z,36.77
2018-11-28T21:06:39.123Z,37.27
2018-11-28T21:09:09.611Z,39.23
2018-11-28T21:11:37.555Z,34.00
2018-11-28T21:14:05.308Z,31.17
2018-11-28T21:16:33.029Z,32.23
2018-11-28T21:19:01.019Z,33.30
2018-11-28T21:21:28.730Z,36.93
2018-11-28T21:23:56.451Z,36.27
2018-11-28T21:26:24.930Z,32.50
2018-11-28T21:28:52.947Z,34.03
2018-11-28T21:31:20.647Z,35.77
2018-11-28T21:33:48.355Z,33.73
2018-11-28T21:36:16.027Z,36.03
2018-11-28T21:38:44.507Z,38.10
2018-11-28T21:41:12.157Z,32.67
2018-11-28T21:43:39.816Z,36.17
2018-11-28T21:46:08.183Z,35.47
2018-11-28T21:48:35.945Z,34.73
2018-11-28T21:51:03.605Z,38.37
2018-11-28T21:53:31.316Z,33.33
2018-11-28T21:55:59.487Z,38.23
2018-11-28T21:58:27.131Z,35.83
2018-11-28T22:00:54.813Z,37.43
2018-11-28T22:03:22.483Z,38.33
2018-11-28T22:05:50.192Z,36.17
2018-11-28T22:08:17.843Z,36.63
2018-11-28T22:10:45.539Z,35.37
2018-11-28T22:13:13.239Z,44.30
2018-11-28T22:15:40.939Z,39.33
2018-11-28T22:18:08.597Z,35.97
2018-11-28T22:20:36.227Z,37.93
2018-11-28T22:23:03.931Z,43.13
2018-11-28T22:25:31.594Z,40.93
2018-11-28T22:27:59.296Z,38.13
2018-11-28T22:30:28.253Z,43.43
2018-11-28T22:32:56.628Z,43.73
2018-11-28T22:35:24.372Z,44.90
2018-11-28T22:37:52.147Z,39.73
2018-11-28T22:40:30.626Z,44.07
2018-11-28T22:42:58.322Z,41.00
2018-11-28T22:45:30.847Z,41.83
2018-11-28T22:47:58.615Z,40.73
2018-11-28T22:50:26.296Z,41.53
2018-11-28T22:52:53.989Z,38.13
2018-11-28T22:55:21.649Z,39.60
2018-11-28T22:57:49.550Z,46.37
2018-11-28T23:00:25.690Z,49.57
2018-11-28T23:03:12.193Z,48.40
2018-11-28T23:05:48.091Z,45.23
2018-11-28T23:08:17.163Z,48.63
2018-11-28T23:10:45.087Z,46.37
2018-11-28T23:13:14.315Z,47.83
2018-11-28T23:15:42.087Z,46.50
2018-11-28T23:18:10.875Z,50.87
2018-11-28T23:20:38.607Z,52.37
2018-11-28T23:23:07.532Z,47.97
2018-11-28T23:25:35.755Z,51.53
2018-11-28T23:28:03.521Z,49.03
2018-11-28T23:30:34.145Z,51.77
2018-11-28T23:33:02.963Z,50.37
2018-11-28T23:35:30.966Z,52.43
2018-11-28T23:37:58.669Z,56.00
2018-11-28T23:40:26.413Z,60.87
2018-11-28T23:42:55.104Z,52.80
2018-11-28T23:45:23.715Z,53.07
2018-11-28T23:47:51.443Z,52.93
2018-11-28T23:50:26.848Z,52.73
2018-11-28T23:52:55.340Z,55.93
2018-11-28T23:55:25.438Z,55.33
2018-11-28T23:57:53.394Z,57.70
